Latest Weather Observations for Tindal

IDD60801

Issued at 10:05 pm CST Tuesday 29 July 2014 (issued every 30 minutes, with the page automatically refreshed every 10 minutes)

About weather observations | Map of weather stations | Latest weather observations for NT | Other Formats
Station Details ID: 014932 Name: TINDAL RAAF Lat: -14.52 Lon: 132.38 Height: 133.6 m
Data from the previous 72 hours. | See also: Recent months at Tindal
Date/Time
CST
Temp
°C
App
Temp
°C
Dew
Point
Rel
Hum
%
Delta-T
°C
Wind Press
QNH
hPa
Press
MSL
hPa
Rain
since 9 am
mm
Dir
 
Spd
km/h
Gust
km/h
Spd
kts
Gust
kts
29/10:00pm 21.6 22.5 13.0 58 4.9 ESE 0 0 0 0 1016.4 - 0.0
29/09:30pm 22.0 21.7 12.8 56 5.3 ESE 6 7 3 4 1016.2 - 0.0
29/09:00pm 23.1 22.5 12.4 51 6.1 ESE 7 9 4 5 1015.9 1015.5 0.0
29/08:30pm 23.3 22.4 12.6 51 6.2 ESE 9 9 5 5 1015.7 - 0.0
29/08:00pm 23.9 23.4 12.8 49 6.4 SE 7 9 4 5 1015.5 - 0.0
29/07:30pm 26.3 25.6 12.0 41 8.3 E 7 9 4 5 1015.3 - 0.0
29/07:00pm 27.4 26.1 11.4 37 9.2 E 9 11 5 6 1015.0 - 0.0
29/06:30pm 29.2 27.1 11.3 33 10.4 E 13 19 7 10 1014.8 - 0.0
29/06:00pm 30.5 28.4 11.0 30 11.3 E 13 26 7 14 1014.6 1014.2 0.0
29/05:30pm 31.3 27.9 11.1 29 11.8 E 20 30 11 16 1014.2 - 0.0
29/05:00pm 31.6 28.2 11.4 29 11.8 E 20 26 11 14 1014.0 - 0.0
29/04:30pm 31.8 27.1 10.5 27 12.3 ESE 26 33 14 18 1013.8 - 0.0
29/04:00pm 32.0 28.6 11.2 28 12.2 E 20 32 11 17 1013.8 - 0.0
29/03:30pm 31.6 27.7 10.9 28 12.0 ESE 22 30 12 16 1014.1 - 0.0
29/03:00pm 31.7 28.5 12.0 30 11.6 E 20 37 11 20 1014.4 1014.0 0.0
29/02:30pm 31.5 26.7 11.8 30 11.6 ESE 28 39 15 21 1014.8 - 0.0
29/02:00pm 31.6 27.6 11.9 30 11.6 ESE 24 37 13 20 1015.3 - 0.0
29/01:30pm 31.1 26.6 12.5 32 11.1 E 28 37 15 20 1015.8 - 0.0
29/01:00pm 30.7 26.2 12.6 33 10.8 E 28 41 15 22 1016.5 - 0.0
29/12:30pm 30.5 25.7 12.9 34 10.5 E 30 43 16 23 1016.9 - 0.0
29/12:09pm 30.1 25.3 13.0 35 10.2 ESE 30 48 16 26 1017.2 - 0.0
29/12:00pm 30.6 26.0 13.4 35 10.3 ESE 30 43 16 23 1017.3 1016.8 0.0
29/11:30am 29.8 26.2 13.1 36 10.0 E 24 37 13 20 1017.7 - 0.0
29/11:00am 29.4 24.7 13.2 37 9.6 E 30 39 16 21 1018.1 - 0.0
29/10:30am 28.0 25.2 14.3 43 8.3 ESE 22 30 12 16 1018.6 - 0.0
29/10:00am 26.4 24.4 15.4 50 6.7 ESE 20 30 11 16 1018.9 - 0.0
29/09:30am 24.6 23.8 16.1 59 5.2 ESE 15 20 8 11 1019.1 - 0.0
29/09:00am 23.1 22.6 16.9 68 3.8 E 15 22 8 12 1018.9 1018.4 0.0
29/08:30am 21.0 20.8 16.8 77 2.6 ESE 13 17 7 9 1018.6 - 0.0
29/08:00am 19.2 19.5 15.9 81 2.0 ESE 9 15 5 8 1018.5 - 0.0
29/07:30am 17.5 17.5 15.1 86 1.4 ESE 9 9 5 5 1018.2 - 0.0
29/07:00am 17.2 16.7 14.8 86 1.4 SE 11 13 6 7 1017.6 - 0.0
29/06:30am 17.3 16.8 14.8 85 1.5 SSE 11 13 6 7 1017.3 - 0.0
29/06:00am 18.1 17.6 15.0 82 1.8 SE 11 15 6 8 1017.0 1016.5 0.0
29/05:30am 18.7 17.9 15.2 80 2.1 SE 13 15 7 8 1016.8 - 0.0
29/05:00am 18.3 16.9 14.4 78 2.3 SSE 15 17 8 9 1016.7 - 0.0
29/04:30am 18.2 17.2 13.3 73 2.8 SSE 11 13 6 7 1016.2 - 0.0
29/04:00am 18.7 17.9 12.9 69 3.3 SE 9 13 5 7 1015.8 - 0.0
29/03:30am 20.6 18.9 13.6 64 4.0 ESE 15 19 8 10 1015.8 - 0.0
29/03:00am 19.8 18.7 13.0 65 3.9 SE 11 13 6 7 1015.9 1015.5 0.0
29/02:30am 19.9 18.7 12.9 64 4.0 ESE 11 13 6 7 1016.0 - 0.0
29/02:00am 20.4 19.1 12.6 61 4.4 SE 11 11 6 6 1016.3 - 0.0
29/01:30am 22.1 20.4 12.4 54 5.5 E 13 17 7 9 1016.4 - 0.0
29/01:00am 21.0 19.9 11.9 56 5.1 ESE 9 13 5 7 1016.5 - 0.0
29/12:30am 23.1 21.6 11.8 49 6.4 E 11 17 6 9 1016.5 - 0.0
29/12:00am 23.3 21.7 11.4 47 6.7 E 11 15 6 8 1016.5 1016.0 0.0
 
Date/Time
CST
Temp
°C
App
Temp
°C
Dew
Point
Rel
Hum
%
Delta-T
°C
Wind Press
QNH
hPa
Press
MSL
hPa
Rain
since 9 am
mm
Dir
 
Spd
km/h
Gust
km/h
Spd
kts
Gust
kts
28/11:30pm 23.8 21.7 11.2 45 7.1 E 13 17 7 9 1016.7 - 0.0
28/11:00pm 24.6 22.4 10.8 42 7.7 E 13 19 7 10 1016.8 - 0.0
28/10:30pm 21.4 20.1 11.4 53 5.6 ESE 9 11 5 6 1016.7 - 0.0
28/10:00pm 20.4 18.8 11.6 57 4.9 SE 11 11 6 6 1016.7 - 0.0
28/09:30pm 20.8 19.2 11.7 56 5.1 SE 11 13 6 7 1016.5 - 0.0
28/09:00pm 21.3 20.8 11.9 55 5.3 ESE 6 7 3 4 1016.3 1015.8 0.0
28/08:30pm 22.3 21.8 12.0 52 5.8 E 6 6 3 3 1015.9 - 0.0
28/08:00pm 23.8 22.6 11.5 46 7.0 E 9 9 5 5 1015.6 - 0.0
28/07:30pm 25.9 25.3 10.5 38 8.7 E 4 7 2 4 1015.1 - 0.0
28/07:00pm 27.3 25.3 10.1 34 9.7 E 11 11 6 6 1014.6 - 0.0
28/06:30pm 29.1 26.6 9.8 30 10.9 ESE 13 19 7 10 1014.4 - 0.0
28/06:00pm 30.3 27.1 9.8 28 11.6 ESE 17 24 9 13 1014.0 1013.6 0.0
28/05:30pm 31.1 27.7 9.3 26 12.3 E 17 26 9 14 1013.7 - 0.0
28/05:00pm 31.7 28.8 9.8 26 12.5 E 15 24 8 13 1013.5 - 0.0
28/04:30pm 32.2 28.7 10.3 26 12.6 E 19 26 10 14 1013.5 - 0.0
28/04:00pm 32.0 29.6 10.1 26 12.6 ESE 13 24 7 13 1013.5 - 0.0
28/03:30pm 31.5 28.0 10.8 28 12.0 ESE 20 33 11 18 1013.8 - 0.0
28/03:00pm 31.6 28.1 10.9 28 12.0 E 20 28 11 15 1014.1 1013.7 0.0
28/02:30pm 31.8 28.7 11.6 29 11.9 E 19 30 10 16 1014.6 - 0.0
28/02:00pm 31.7 27.4 12.0 30 11.6 E 26 37 14 20 1015.1 - 0.0
28/01:30pm 31.7 27.8 12.0 30 11.6 E 24 35 13 19 1015.7 - 0.0
28/12:58pm 30.8 26.2 12.2 32 11.0 E 28 46 15 25 1016.4 - 0.0
28/12:30pm 29.9 25.2 11.9 33 10.5 E 28 44 15 24 1016.9 - 0.0
28/12:00pm 29.6 24.4 11.6 33 10.5 E 30 43 16 23 1017.4 1016.9 0.0
28/11:30am 29.6 25.3 12.1 34 10.3 E 26 37 14 20 1017.8 - 0.0
28/11:00am 28.9 26.1 14.3 40 8.8 E 22 32 12 17 1018.3 - 0.0
28/10:30am 27.4 25.2 14.8 46 7.6 ESE 20 28 11 15 1018.5 - 0.0
28/10:00am 26.0 24.3 15.7 53 6.3 E 19 26 10 14 1018.8 - 0.0
28/09:30am 24.5 24.0 17.0 63 4.7 SE 15 20 8 11 1018.9 - 0.0
28/09:00am 22.5 22.5 17.2 72 3.3 ESE 13 20 7 11 1018.8 1018.3 0.0
28/08:30am 21.1 21.1 17.3 79 2.3 SE 13 17 7 9 1018.5 - 0.0
28/08:00am 19.5 20.1 16.7 84 1.7 SE 9 13 5 7 1018.2 - 0.0
28/07:30am 17.8 18.1 16.1 90 1.0 SSE 9 11 5 6 1017.9 - 0.0
28/07:00am 17.9 17.8 16.1 89 1.1 SE 11 11 6 6 1017.5 - 0.0
28/06:30am 18.1 18.0 16.1 88 1.2 SE 11 13 6 7 1017.3 - 0.0
28/06:00am 18.4 18.5 15.6 84 1.7 SE 9 11 5 6 1017.1 1016.6 0.0
28/05:30am 19.3 19.1 15.6 79 2.2 SE 11 11 6 6 1016.7 - 0.0
28/05:00am 20.2 19.6 15.6 75 2.7 E 13 15 7 8 1016.5 - 0.0
28/04:30am 20.6 20.5 14.9 70 3.4 ESE 9 11 5 6 1016.4 - 0.0
28/04:00am 21.2 21.0 14.6 66 3.9 E 9 11 5 6 1016.3 - 0.0
28/03:30am 22.0 21.7 14.4 62 4.5 E 9 13 5 7 1016.4 - 0.0
28/03:00am 22.4 21.7 14.3 60 4.8 E 11 17 6 9 1016.5 1016.0 0.0
28/02:30am 23.0 21.9 14.3 58 5.1 E 13 19 7 10 1016.7 - 0.0
28/02:00am 23.4 21.4 13.8 54 5.6 E 17 20 9 11 1016.8 - 0.0
28/01:30am 23.5 21.9 12.8 51 6.2 E 13 15 7 8 1017.1 - 0.0
28/01:00am 23.7 22.7 12.4 49 6.5 E 9 13 5 7 1017.2 - 0.0
28/12:30am 24.0 22.9 12.0 47 6.9 E 9 13 5 7 1017.3 - 0.0
28/12:00am 24.5 23.0 11.8 45 7.2 E 11 15 6 8 1017.5 1017.0 0.0
 
Date/Time
CST
Temp
°C
App
Temp
°C
Dew
Point
Rel
Hum
%
Delta-T
°C
Wind Press
QNH
hPa
Press
MSL
hPa
Rain
since 9 am
mm
Dir
 
Spd
km/h
Gust
km/h
Spd
kts
Gust
kts
27/11:30pm 25.1 23.1 11.6 42 7.7 E 13 19 7 10 1017.4 - 0.0
27/11:00pm 25.5 23.2 11.7 42 7.9 E 15 20 8 11 1017.4 - 0.0
27/10:30pm 25.5 23.6 11.7 42 7.9 E 13 17 7 9 1017.3 - 0.0
27/10:00pm 24.8 23.0 12.1 45 7.3 E 13 15 7 8 1017.2 - 0.0
27/09:30pm 22.2 21.3 12.5 54 5.5 E 9 11 5 6 1017.1 - 0.0
27/09:00pm 22.1 21.7 12.9 56 5.3 SE 7 9 4 5 1016.8 1016.3 0.0
27/08:30pm 23.7 23.1 12.4 49 6.5 SE 7 9 4 5 1016.6 - 0.0
27/08:00pm 25.5 24.4 12.0 43 7.8 ESE 9 11 5 6 1016.2 - 0.0
27/07:30pm 27.2 25.5 11.2 36 9.2 ESE 11 15 6 8 1015.8 - 0.0
27/07:00pm 28.0 26.0 11.5 35 9.5 E 13 17 7 9 1015.4 - 0.0
27/06:30pm 29.1 27.0 11.2 33 10.3 E 13 17 7 9 1015.0 - 0.0
27/06:00pm 29.4 27.1 11.9 34 10.2 E 15 24 8 13 1014.8 1014.4 0.0
27/05:30pm 30.6 27.4 12.0 32 10.9 ESE 20 28 11 15 1014.6 - 0.0
27/05:00pm 31.4 28.4 12.7 32 11.2 ESE 20 28 11 15 1014.4 - 0.0
27/04:30pm 32.0 27.8 12.3 30 11.7 ESE 26 35 14 19 1014.3 - 0.0
27/04:00pm 30.5 26.5 11.9 31 10.9 ESE 24 32 13 17 1014.3 - 0.0
27/03:30pm 32.2 27.1 11.9 29 12.0 ESE 30 37 16 20 1014.3 - 0.0
27/03:00pm 32.5 28.6 12.2 29 12.1 ESE 24 37 13 20 1014.5 1014.1 0.0
27/02:30pm 30.4 26.6 12.3 33 10.7 E 24 35 13 19 1015.0 - 0.0
27/02:00pm 32.2 28.9 12.9 31 11.6 E 22 32 12 17 1015.6 - 0.0
27/01:30pm 29.6 25.1 12.5 35 10.1 ESE 28 41 15 22 1016.4 - 0.0
27/01:00pm 31.1 26.3 12.9 32 10.9 ESE 30 44 16 24 1017.1 - 0.0
27/12:30pm 30.7 26.7 13.0 33 10.6 ESE 26 37 14 20 1017.7 - 0.0
27/12:00pm 30.2 26.7 13.5 36 10.0 E 24 35 13 19 1018.2 1017.7 0.0
27/11:30am 29.1 26.5 13.7 38 9.2 ESE 20 32 11 17 1018.6 - 0.0
27/11:00am 28.1 25.8 14.7 44 8.1 ESE 20 30 11 16 1019.0 - 0.0
27/10:30am 27.1 24.5 14.8 47 7.5 SE 22 30 12 16 1019.2 - 0.0
27/10:00am 26.0 24.4 16.0 54 6.2 ESE 19 26 10 14 1019.4 - 0.0
27/09:30am 24.1 22.1 15.6 59 5.2 ESE 20 28 11 15 1019.3 - 0.0
27/09:00am 22.8 22.5 16.4 67 3.9 SE 13 17 7 9 1019.2 1018.7 0.0
27/08:30am 20.8 21.6 16.4 76 2.7 ESE 7 11 4 6 1018.9 - 0.0
27/08:00am 18.2 18.8 15.8 86 1.4 SSE 7 9 4 5 1018.5 - 0.0
27/07:30am 15.8 15.8 14.2 90 0.9 SSE 7 7 4 4 1018.2 - 0.0
27/07:00am 15.1 14.6 13.8 92 0.7 SSE 9 9 5 5 1018.0 - 0.0
27/06:30am 15.8 15.6 13.5 86 1.3 SSE 7 7 4 4 1017.8 - 0.0
27/06:00am 17.2 17.3 14.5 84 1.6 S 7 7 4 4 1017.7 1017.2 0.0
27/05:30am 18.0 18.5 15.1 83 1.7 SSE 6 6 3 3 1017.6 - 0.0
27/05:00am 17.7 17.6 15.0 84 1.6 SSE 9 11 5 6 1017.5 - 0.0
27/04:30am 18.1 17.6 14.8 81 1.9 SSE 11 11 6 6 1017.3 - 0.0
27/04:00am 18.8 18.4 15.3 80 2.1 SSE 11 11 6 6 1017.5 - 0.0
27/03:30am 19.1 19.2 15.4 79 2.2 SSE 9 11 5 6 1017.6 - 0.0
27/03:00am 19.5 19.1 15.2 76 2.5 SSE 11 11 6 6 1017.7 1017.2 0.0
27/02:30am 21.3 21.5 15.8 71 3.3 ESE 9 11 5 6 1017.9 - 0.0
27/02:00am 22.3 22.2 15.9 67 3.9 E 11 15 6 8 1018.1 - 0.0
27/01:30am 22.2 22.6 15.3 65 4.1 E 7 11 4 6 1018.5 - 0.0
27/01:00am 23.3 22.7 15.6 62 4.7 E 13 19 7 10 1018.6 - 0.0
27/12:30am 23.4 23.1 15.5 61 4.8 E 11 17 6 9 1018.8 - 0.0
27/12:00am 23.7 22.9 15.2 59 5.1 E 13 17 7 9 1018.9 1018.4 0.0
 
Date/Time
CST
Temp
°C
App
Temp
°C
Dew
Point
Rel
Hum
%
Delta-T
°C
Wind Press
QNH
hPa
Press
MSL
hPa
Rain
since 9 am
mm
Dir
 
Spd
km/h
Gust
km/h
Spd
kts
Gust
kts
26/11:30pm 23.7 23.3 15.2 59 5.1 E 11 15 6 8 1018.9 - 0.0
26/11:00pm 23.4 23.2 14.7 58 5.2 ESE 9 13 5 7 1018.9 - 0.0
26/10:30pm 24.5 23.4 14.3 53 6.1 E 13 15 7 8 1018.7 - 0.0

Other Formats:

Comma delimited format used in spreadsheet applications
http://www.bom.gov.au/fwo/IDD60801/IDD60801.94131.axf

JavaScript Object Notation format (JSON) in row-major order
http://www.bom.gov.au/fwo/IDD60801/IDD60801.94131.json